sensor_id;sensor_type;location;lat;lon;timestamp;P1;durP1;ratioP1;P2;durP2;ratioP2
11414;SDS011;5763;42.714;23.244;2023-08-31T00:01:36;1.20;;;0.85;;
11414;SDS011;5763;42.714;23.244;2023-08-31T00:04:03;1.52;;;0.80;;
11414;SDS011;5763;42.714;23.244;2023-08-31T00:06:33;1.48;;;1.00;;
11414;SDS011;5763;42.714;23.244;2023-08-31T00:08:59;0.70;;;0.60;;
11414;SDS011;5763;42.714;23.244;2023-08-31T00:11:26;1.23;;;1.00;;
11414;SDS011;5763;42.714;23.244;2023-08-31T00:13:53;1.63;;;0.50;;
11414;SDS011;5763;42.714;23.244;2023-08-31T00:16:24;0.95;;;0.63;;
11414;SDS011;5763;42.714;23.244;2023-08-31T00:18:52;0.85;;;0.57;;
11414;SDS011;5763;42.714;23.244;2023-08-31T00:21:19;0.52;;;0.52;;
11414;SDS011;5763;42.714;23.244;2023-08-31T00:23:46;1.20;;;0.73;;
11414;SDS011;5763;42.714;23.244;2023-08-31T00:26:13;1.25;;;0.75;;
11414;SDS011;5763;42.714;23.244;2023-08-31T00:28:40;0.73;;;0.47;;
11414;SDS011;5763;42.714;23.244;2023-08-31T00:31:07;1.23;;;0.73;;
11414;SDS011;5763;42.714;23.244;2023-08-31T00:33:37;1.65;;;0.85;;
11414;SDS011;5763;42.714;23.244;2023-08-31T00:36:04;0.70;;;0.68;;
11414;SDS011;5763;42.714;23.244;2023-08-31T00:38:31;1.10;;;0.88;;
11414;SDS011;5763;42.714;23.244;2023-08-31T00:40:58;1.38;;;0.90;;
11414;SDS011;5763;42.714;23.244;2023-08-31T00:43:24;1.70;;;0.90;;
11414;SDS011;5763;42.714;23.244;2023-08-31T00:45:51;1.38;;;0.90;;
11414;SDS011;5763;42.714;23.244;2023-08-31T00:48:23;1.35;;;1.08;;
11414;SDS011;5763;42.714;23.244;2023-08-31T00:50:51;1.17;;;0.73;;
11414;SDS011;5763;42.714;23.244;2023-08-31T00:53:18;1.00;;;0.77;;
11414;SDS011;5763;42.714;23.244;2023-08-31T00:55:45;1.33;;;0.82;;
11414;SDS011;5763;42.714;23.244;2023-08-31T00:58:12;2.10;;;1.00;;
11414;SDS011;5763;42.714;23.244;2023-08-31T01:00:41;1.13;;;0.85;;
11414;SDS011;5763;42.714;23.244;2023-08-31T01:03:16;1.05;;;0.85;;
11414;SDS011;5763;42.714;23.244;2023-08-31T01:05:49;1.20;;;0.80;;
11414;SDS011;5763;42.714;23.244;2023-08-31T01:08:28;0.95;;;0.55;;
11414;SDS011;5763;42.714;23.244;2023-08-31T01:11:04;0.98;;;0.75;;
11414;SDS011;5763;42.714;23.244;2023-08-31T01:13:38;1.65;;;0.95;;
11414;SDS011;5763;42.714;23.244;2023-08-31T01:16:10;1.40;;;0.90;;
11414;SDS011;5763;42.714;23.244;2023-08-31T01:18:39;1.40;;;1.00;;
11414;SDS011;5763;42.714;23.244;2023-08-31T01:21:11;1.13;;;0.80;;
11414;SDS011;5763;42.714;23.244;2023-08-31T01:23:50;1.33;;;0.80;;
11414;SDS011;5763;42.714;23.244;2023-08-31T01:26:18;1.08;;;0.75;;
11414;SDS011;5763;42.714;23.244;2023-08-31T01:28:46;0.85;;;0.60;;
11414;SDS011;5763;42.714;23.244;2023-08-31T01:31:13;0.68;;;0.68;;
11414;SDS011;5763;42.714;23.244;2023-08-31T01:33:40;1.10;;;0.90;;
11414;SDS011;5763;42.714;23.244;2023-08-31T01:36:08;1.13;;;0.75;;
11414;SDS011;5763;42.714;23.244;2023-08-31T01:38:42;1.63;;;1.05;;
11414;SDS011;5763;42.714;23.244;2023-08-31T01:41:16;0.80;;;0.65;;
11414;SDS011;5763;42.714;23.244;2023-08-31T01:43:44;0.75;;;0.73;;
11414;SDS011;5763;42.714;23.244;2023-08-31T01:46:14;0.88;;;0.75;;
11414;SDS011;5763;42.714;23.244;2023-08-31T01:48:42;2.10;;;0.82;;
11414;SDS011;5763;42.714;23.244;2023-08-31T01:51:09;0.70;;;0.70;;
11414;SDS011;5763;42.714;23.244;2023-08-31T01:53:36;1.30;;;0.57;;
11414;SDS011;5763;42.714;23.244;2023-08-31T01:56:03;1.85;;;0.93;;
11414;SDS011;5763;42.714;23.244;2023-08-31T01:58:32;0.98;;;0.70;;
11414;SDS011;5763;42.714;23.244;2023-08-31T02:00:58;1.42;;;0.77;;
11414;SDS011;5763;42.714;23.244;2023-08-31T02:03:25;0.75;;;0.65;;
11414;SDS011;5763;42.714;23.244;2023-08-31T02:05:52;1.30;;;0.73;;
11414;SDS011;5763;42.714;23.244;2023-08-31T02:08:19;0.85;;;0.60;;
11414;SDS011;5763;42.714;23.244;2023-08-31T02:10:45;1.00;;;0.70;;
11414;SDS011;5763;42.714;23.244;2023-08-31T02:13:13;1.05;;;0.90;;
11414;SDS011;5763;42.714;23.244;2023-08-31T02:15:42;1.25;;;0.85;;
11414;SDS011;5763;42.714;23.244;2023-08-31T02:18:08;1.50;;;0.93;;
11414;SDS011;5763;42.714;23.244;2023-08-31T02:20:35;1.05;;;0.93;;
11414;SDS011;5763;42.714;23.244;2023-08-31T02:23:02;1.60;;;0.88;;
11414;SDS011;5763;42.714;23.244;2023-08-31T02:25:29;1.17;;;0.85;;
11414;SDS011;5763;42.714;23.244;2023-08-31T02:27:56;0.95;;;0.85;;
11414;SDS011;5763;42.714;23.244;2023-08-31T02:30:23;1.05;;;0.70;;
11414;SDS011;5763;42.714;23.244;2023-08-31T02:32:51;0.85;;;0.65;;
11414;SDS011;5763;42.714;23.244;2023-08-31T02:35:17;1.05;;;0.80;;
11414;SDS011;5763;42.714;23.244;2023-08-31T02:37:44;0.75;;;0.52;;
11414;SDS011;5763;42.714;23.244;2023-08-31T02:40:11;1.55;;;0.82;;
11414;SDS011;5763;42.714;23.244;2023-08-31T02:42:37;0.95;;;0.60;;
11414;SDS011;5763;42.714;23.244;2023-08-31T02:45:04;1.40;;;0.80;;
11414;SDS011;5763;42.714;23.244;2023-08-31T02:47:31;1.35;;;0.80;;
11414;SDS011;5763;42.714;23.244;2023-08-31T02:49:59;0.70;;;0.57;;
11414;SDS011;5763;42.714;23.244;2023-08-31T02:52:26;1.33;;;0.73;;
11414;SDS011;5763;42.714;23.244;2023-08-31T02:54:53;0.95;;;0.65;;
11414;SDS011;5763;42.714;23.244;2023-08-31T02:57:20;0.70;;;0.60;;
11414;SDS011;5763;42.714;23.244;2023-08-31T02:59:49;1.15;;;0.60;;
11414;SDS011;5763;42.714;23.244;2023-08-31T03:02:16;0.80;;;0.52;;
11414;SDS011;5763;42.714;23.244;2023-08-31T03:04:43;1.00;;;0.63;;
11414;SDS011;5763;42.714;23.244;2023-08-31T03:07:11;1.23;;;0.82;;
11414;SDS011;5763;42.714;23.244;2023-08-31T03:09:40;0.63;;;0.50;;
11414;SDS011;5763;42.714;23.244;2023-08-31T03:12:07;1.08;;;0.60;;
11414;SDS011;5763;42.714;23.244;2023-08-31T03:14:33;0.55;;;0.50;;
11414;SDS011;5763;42.714;23.244;2023-08-31T03:17:00;0.70;;;0.45;;
11414;SDS011;5763;42.714;23.244;2023-08-31T03:19:27;0.80;;;0.55;;
11414;SDS011;5763;42.714;23.244;2023-08-31T03:21:53;0.55;;;0.55;;
11414;SDS011;5763;42.714;23.244;2023-08-31T03:24:22;0.68;;;0.63;;
11414;SDS011;5763;42.714;23.244;2023-08-31T03:26:49;1.27;;;0.57;;
11414;SDS011;5763;42.714;23.244;2023-08-31T03:29:15;0.52;;;0.52;;
11414;SDS011;5763;42.714;23.244;2023-08-31T03:31:42;1.70;;;0.90;;
11414;SDS011;5763;42.714;23.244;2023-08-31T03:34:09;2.42;;;0.80;;
11414;SDS011;5763;42.714;23.244;2023-08-31T03:36:35;0.73;;;0.73;;
11414;SDS011;5763;42.714;23.244;2023-08-31T03:39:02;1.50;;;0.90;;
11414;SDS011;5763;42.714;23.244;2023-08-31T03:41:31;1.27;;;0.85;;
11414;SDS011;5763;42.714;23.244;2023-08-31T03:43:57;0.85;;;0.73;;
11414;SDS011;5763;42.714;23.244;2023-08-31T03:46:24;1.67;;;1.25;;
11414;SDS011;5763;42.714;23.244;2023-08-31T03:48:51;2.70;;;1.40;;
11414;SDS011;5763;42.714;23.244;2023-08-31T03:51:18;2.38;;;1.52;;
11414;SDS011;5763;42.714;23.244;2023-08-31T03:53:45;2.25;;;1.55;;
11414;SDS011;5763;42.714;23.244;2023-08-31T03:56:12;1.92;;;1.55;;
11414;SDS011;5763;42.714;23.244;2023-08-31T03:58:40;1.90;;;1.45;;
11414;SDS011;5763;42.714;23.244;2023-08-31T04:01:06;1.45;;;1.10;;
11414;SDS011;5763;42.714;23.244;2023-08-31T04:03:35;1.63;;;1.20;;
11414;SDS011;5763;42.714;23.244;2023-08-31T04:06:02;1.90;;;1.50;;
11414;SDS011;5763;42.714;23.244;2023-08-31T04:08:30;1.75;;;1.17;;
11414;SDS011;5763;42.714;23.244;2023-08-31T04:10:56;3.42;;;1.45;;
11414;SDS011;5763;42.714;23.244;2023-08-31T04:13:23;1.77;;;1.05;;
11414;SDS011;5763;42.714;23.244;2023-08-31T04:15:51;1.05;;;0.90;;
11414;SDS011;5763;42.714;23.244;2023-08-31T04:18:19;1.58;;;0.80;;
11414;SDS011;5763;42.714;23.244;2023-08-31T04:20:47;1.42;;;1.10;;
11414;SDS011;5763;42.714;23.244;2023-08-31T04:23:15;1.45;;;1.00;;
11414;SDS011;5763;42.714;23.244;2023-08-31T04:25:41;1.77;;;1.10;;
11414;SDS011;5763;42.714;23.244;2023-08-31T04:28:08;1.58;;;1.05;;
11414;SDS011;5763;42.714;23.244;2023-08-31T04:30:35;2.15;;;1.30;;
11414;SDS011;5763;42.714;23.244;2023-08-31T04:33:03;1.33;;;1.05;;
11414;SDS011;5763;42.714;23.244;2023-08-31T04:35:32;1.77;;;1.08;;
11414;SDS011;5763;42.714;23.244;2023-08-31T04:37:59;1.60;;;1.27;;
11414;SDS011;5763;42.714;23.244;2023-08-31T04:40:27;1.77;;;0.95;;
11414;SDS011;5763;42.714;23.244;2023-08-31T04:42:53;2.72;;;1.27;;
11414;SDS011;5763;42.714;23.244;2023-08-31T04:45:20;1.95;;;0.98;;
11414;SDS011;5763;42.714;23.244;2023-08-31T04:47:47;2.15;;;1.20;;
11414;SDS011;5763;42.714;23.244;2023-08-31T04:50:16;1.75;;;1.65;;
11414;SDS011;5763;42.714;23.244;2023-08-31T04:52:42;2.15;;;1.60;;
11414;SDS011;5763;42.714;23.244;2023-08-31T04:55:09;4.07;;;1.90;;
11414;SDS011;5763;42.714;23.244;2023-08-31T04:57:38;3.92;;;2.05;;
11414;SDS011;5763;42.714;23.244;2023-08-31T05:00:05;5.28;;;2.28;;
11414;SDS011;5763;42.714;23.244;2023-08-31T05:02:34;2.38;;;1.80;;
11414;SDS011;5763;42.714;23.244;2023-08-31T05:05:00;3.85;;;1.63;;
11414;SDS011;5763;42.714;23.244;2023-08-31T05:07:29;2.58;;;1.92;;
11414;SDS011;5763;42.714;23.244;2023-08-31T05:09:55;2.08;;;1.88;;
11414;SDS011;5763;42.714;23.244;2023-08-31T05:12:22;2.42;;;2.08;;
11414;SDS011;5763;42.714;23.244;2023-08-31T05:14:49;3.03;;;1.95;;
11414;SDS011;5763;42.714;23.244;2023-08-31T05:17:15;3.10;;;1.80;;
11414;SDS011;5763;42.714;23.244;2023-08-31T05:19:42;2.20;;;1.65;;
11414;SDS011;5763;42.714;23.244;2023-08-31T05:22:09;2.03;;;1.83;;
11414;SDS011;5763;42.714;23.244;2023-08-31T05:24:37;3.17;;;2.22;;
11414;SDS011;5763;42.714;23.244;2023-08-31T05:27:04;2.10;;;1.77;;
11414;SDS011;5763;42.714;23.244;2023-08-31T05:29:31;2.33;;;1.60;;
11414;SDS011;5763;42.714;23.244;2023-08-31T05:31:57;2.42;;;1.40;;
11414;SDS011;5763;42.714;23.244;2023-08-31T05:34:24;2.58;;;1.73;;
11414;SDS011;5763;42.714;23.244;2023-08-31T05:36:51;2.03;;;1.23;;
11414;SDS011;5763;42.714;23.244;2023-08-31T05:39:18;1.73;;;1.42;;
11414;SDS011;5763;42.714;23.244;2023-08-31T05:41:46;1.45;;;1.35;;
11414;SDS011;5763;42.714;23.244;2023-08-31T05:44:13;2.13;;;1.60;;
11414;SDS011;5763;42.714;23.244;2023-08-31T05:46:39;2.35;;;1.50;;
11414;SDS011;5763;42.714;23.244;2023-08-31T05:49:06;3.83;;;1.98;;
11414;SDS011;5763;42.714;23.244;2023-08-31T05:51:33;1.65;;;1.20;;
11414;SDS011;5763;42.714;23.244;2023-08-31T05:54:00;3.20;;;1.40;;
11414;SDS011;5763;42.714;23.244;2023-08-31T05:56:28;1.60;;;1.45;;
11414;SDS011;5763;42.714;23.244;2023-08-31T05:58:56;1.80;;;1.10;;
11414;SDS011;5763;42.714;23.244;2023-08-31T06:01:23;1.20;;;0.93;;
11414;SDS011;5763;42.714;23.244;2023-08-31T06:03:49;1.50;;;1.25;;
11414;SDS011;5763;42.714;23.244;2023-08-31T06:06:16;1.52;;;0.80;;
11414;SDS011;5763;42.714;23.244;2023-08-31T06:08:43;2.30;;;1.02;;
11414;SDS011;5763;42.714;23.244;2023-08-31T06:11:09;1.13;;;0.90;;
11414;SDS011;5763;42.714;23.244;2023-08-31T06:13:38;1.90;;;1.02;;
11414;SDS011;5763;42.714;23.244;2023-08-31T06:16:06;1.63;;;1.13;;
11414;SDS011;5763;42.714;23.244;2023-08-31T06:18:33;1.30;;;0.85;;
11414;SDS011;5763;42.714;23.244;2023-08-31T06:20:59;3.28;;;0.90;;
11414;SDS011;5763;42.714;23.244;2023-08-31T06:23:26;1.67;;;1.13;;
11414;SDS011;5763;42.714;23.244;2023-08-31T06:25:53;2.25;;;1.15;;
11414;SDS011;5763;42.714;23.244;2023-08-31T06:28:19;3.00;;;0.95;;
11414;SDS011;5763;42.714;23.244;2023-08-31T06:30:46;2.17;;;1.30;;
11414;SDS011;5763;42.714;23.244;2023-08-31T06:33:14;1.98;;;1.23;;
11414;SDS011;5763;42.714;23.244;2023-08-31T06:35:42;1.33;;;0.98;;
11414;SDS011;5763;42.714;23.244;2023-08-31T06:38:11;1.45;;;1.00;;
11414;SDS011;5763;42.714;23.244;2023-08-31T06:40:38;2.38;;;1.30;;
11414;SDS011;5763;42.714;23.244;2023-08-31T06:43:05;4.07;;;2.33;;
11414;SDS011;5763;42.714;23.244;2023-08-31T06:45:31;2.20;;;1.70;;
11414;SDS011;5763;42.714;23.244;2023-08-31T06:47:59;2.20;;;1.50;;
11414;SDS011;5763;42.714;23.244;2023-08-31T06:50:27;1.40;;;1.08;;
11414;SDS011;5763;42.714;23.244;2023-08-31T06:52:54;2.80;;;0.90;;
11414;SDS011;5763;42.714;23.244;2023-08-31T06:55:20;2.35;;;1.02;;
11414;SDS011;5763;42.714;23.244;2023-08-31T06:57:48;1.60;;;0.90;;
11414;SDS011;5763;42.714;23.244;2023-08-31T07:00:14;2.58;;;1.05;;
11414;SDS011;5763;42.714;23.244;2023-08-31T07:02:42;2.10;;;1.10;;
11414;SDS011;5763;42.714;23.244;2023-08-31T07:05:09;0.95;;;0.77;;
11414;SDS011;5763;42.714;23.244;2023-08-31T07:07:38;1.45;;;1.00;;
11414;SDS011;5763;42.714;23.244;2023-08-31T07:10:05;1.25;;;0.80;;
11414;SDS011;5763;42.714;23.244;2023-08-31T07:12:33;1.85;;;1.23;;
11414;SDS011;5763;42.714;23.244;2023-08-31T07:14:59;2.75;;;1.55;;
11414;SDS011;5763;42.714;23.244;2023-08-31T07:17:27;1.13;;;0.70;;
11414;SDS011;5763;42.714;23.244;2023-08-31T07:19:54;2.17;;;1.13;;
11414;SDS011;5763;42.714;23.244;2023-08-31T07:22:20;1.40;;;0.90;;
11414;SDS011;5763;42.714;23.244;2023-08-31T07:24:49;1.40;;;1.00;;
11414;SDS011;5763;42.714;23.244;2023-08-31T07:27:15;1.35;;;0.60;;
11414;SDS011;5763;42.714;23.244;2023-08-31T07:29:42;2.03;;;0.82;;
11414;SDS011;5763;42.714;23.244;2023-08-31T07:32:09;1.55;;;1.00;;
11414;SDS011;5763;42.714;23.244;2023-08-31T07:34:36;0.98;;;0.80;;
11414;SDS011;5763;42.714;23.244;2023-08-31T07:37:03;1.10;;;0.70;;
11414;SDS011;5763;42.714;23.244;2023-08-31T07:39:31;1.13;;;0.70;;
11414;SDS011;5763;42.714;23.244;2023-08-31T07:41:59;1.48;;;0.85;;
11414;SDS011;5763;42.714;23.244;2023-08-31T07:44:25;0.98;;;0.88;;
11414;SDS011;5763;42.714;23.244;2023-08-31T07:46:52;1.13;;;1.00;;
11414;SDS011;5763;42.714;23.244;2023-08-31T07:49:19;0.90;;;0.70;;
11414;SDS011;5763;42.714;23.244;2023-08-31T07:51:46;1.90;;;0.70;;
11414;SDS011;5763;42.714;23.244;2023-08-31T07:54:18;1.17;;;0.70;;
11414;SDS011;5763;42.714;23.244;2023-08-31T07:56:45;1.40;;;0.70;;
11414;SDS011;5763;42.714;23.244;2023-08-31T07:59:14;7.05;;;2.72;;
11414;SDS011;5763;42.714;23.244;2023-08-31T08:01:40;1.73;;;0.85;;
11414;SDS011;5763;42.714;23.244;2023-08-31T08:04:07;1.05;;;0.77;;
11414;SDS011;5763;42.714;23.244;2023-08-31T08:06:34;1.13;;;0.90;;
11414;SDS011;5763;42.714;23.244;2023-08-31T08:09:00;1.20;;;0.80;;
11414;SDS011;5763;42.714;23.244;2023-08-31T08:11:27;1.13;;;0.80;;
11414;SDS011;5763;42.714;23.244;2023-08-31T08:13:54;2.03;;;0.90;;
11414;SDS011;5763;42.714;23.244;2023-08-31T08:16:22;2.72;;;1.20;;
11414;SDS011;5763;42.714;23.244;2023-08-31T08:18:49;2.15;;;1.00;;
11414;SDS011;5763;42.714;23.244;2023-08-31T08:21:16;2.10;;;1.02;;
11414;SDS011;5763;42.714;23.244;2023-08-31T08:23:43;1.30;;;0.95;;
11414;SDS011;5763;42.714;23.244;2023-08-31T08:26:09;1.20;;;1.02;;
11414;SDS011;5763;42.714;23.244;2023-08-31T08:28:36;2.28;;;1.38;;
11414;SDS011;5763;42.714;23.244;2023-08-31T08:31:03;2.47;;;1.33;;
11414;SDS011;5763;42.714;23.244;2023-08-31T08:33:31;1.90;;;1.30;;
11414;SDS011;5763;42.714;23.244;2023-08-31T08:35:58;2.60;;;1.23;;
11414;SDS011;5763;42.714;23.244;2023-08-31T08:38:25;2.20;;;1.52;;
11414;SDS011;5763;42.714;23.244;2023-08-31T08:40:52;2.10;;;1.33;;
11414;SDS011;5763;42.714;23.244;2023-08-31T08:43:20;2.15;;;1.40;;
11414;SDS011;5763;42.714;23.244;2023-08-31T08:45:51;2.35;;;1.33;;
11414;SDS011;5763;42.714;23.244;2023-08-31T08:48:18;1.85;;;1.40;;
11414;SDS011;5763;42.714;23.244;2023-08-31T08:50:49;1.70;;;1.20;;
11414;SDS011;5763;42.714;23.244;2023-08-31T08:53:16;2.35;;;1.55;;
11414;SDS011;5763;42.714;23.244;2023-08-31T08:55:43;1.88;;;1.30;;
11414;SDS011;5763;42.714;23.244;2023-08-31T08:58:09;1.33;;;1.00;;
11414;SDS011;5763;42.714;23.244;2023-08-31T09:00:36;2.05;;;1.38;;
11414;SDS011;5763;42.714;23.244;2023-08-31T09:03:03;2.10;;;1.00;;
11414;SDS011;5763;42.714;23.244;2023-08-31T09:05:31;1.45;;;1.15;;
11414;SDS011;5763;42.714;23.244;2023-08-31T09:08:02;3.00;;;1.50;;
11414;SDS011;5763;42.714;23.244;2023-08-31T09:10:33;1.73;;;1.17;;
11414;SDS011;5763;42.714;23.244;2023-08-31T09:13:04;2.13;;;1.40;;
11414;SDS011;5763;42.714;23.244;2023-08-31T09:15:38;2.28;;;1.40;;
11414;SDS011;5763;42.714;23.244;2023-08-31T09:18:06;2.25;;;1.45;;
11414;SDS011;5763;42.714;23.244;2023-08-31T09:20:42;2.25;;;1.58;;
11414;SDS011;5763;42.714;23.244;2023-08-31T09:23:11;1.88;;;1.30;;
11414;SDS011;5763;42.714;23.244;2023-08-31T09:25:41;2.97;;;1.70;;
11414;SDS011;5763;42.714;23.244;2023-08-31T09:28:09;2.10;;;1.27;;
11414;SDS011;5763;42.714;23.244;2023-08-31T09:30:37;2.03;;;1.55;;
11414;SDS011;5763;42.714;23.244;2023-08-31T09:33:06;1.52;;;1.30;;
11414;SDS011;5763;42.714;23.244;2023-08-31T09:35:34;2.03;;;1.40;;
11414;SDS011;5763;42.714;23.244;2023-08-31T09:38:07;2.22;;;1.40;;
11414;SDS011;5763;42.714;23.244;2023-08-31T09:40:36;1.90;;;1.27;;
11414;SDS011;5763;42.714;23.244;2023-08-31T09:43:04;2.50;;;1.70;;
11414;SDS011;5763;42.714;23.244;2023-08-31T09:45:32;2.70;;;1.30;;
11414;SDS011;5763;42.714;23.244;2023-08-31T09:48:00;2.80;;;1.70;;
11414;SDS011;5763;42.714;23.244;2023-08-31T09:50:29;2.42;;;1.55;;
11414;SDS011;5763;42.714;23.244;2023-08-31T09:52:58;3.45;;;1.65;;
11414;SDS011;5763;42.714;23.244;2023-08-31T09:55:28;4.13;;;1.55;;
11414;SDS011;5763;42.714;23.244;2023-08-31T09:57:57;1.83;;;1.38;;
11414;SDS011;5763;42.714;23.244;2023-08-31T10:00:26;2.22;;;1.50;;
11414;SDS011;5763;42.714;23.244;2023-08-31T10:02:53;2.65;;;1.52;;
11414;SDS011;5763;42.714;23.244;2023-08-31T10:05:22;1.58;;;1.40;;
11414;SDS011;5763;42.714;23.244;2023-08-31T10:07:50;2.05;;;1.60;;
11414;SDS011;5763;42.714;23.244;2023-08-31T10:10:17;1.85;;;1.40;;
11414;SDS011;5763;42.714;23.244;2023-08-31T10:12:45;2.75;;;2.05;;
11414;SDS011;5763;42.714;23.244;2023-08-31T10:15:16;2.17;;;1.60;;
11414;SDS011;5763;42.714;23.244;2023-08-31T10:17:43;2.05;;;1.67;;
11414;SDS011;5763;42.714;23.244;2023-08-31T10:20:11;2.05;;;1.85;;
11414;SDS011;5763;42.714;23.244;2023-08-31T10:22:39;2.00;;;1.63;;
11414;SDS011;5763;42.714;23.244;2023-08-31T10:25:06;1.85;;;1.30;;
11414;SDS011;5763;42.714;23.244;2023-08-31T10:27:37;2.53;;;1.45;;
11414;SDS011;5763;42.714;23.244;2023-08-31T10:30:20;1.90;;;1.50;;
11414;SDS011;5763;42.714;23.244;2023-08-31T10:35:49;2.15;;;1.42;;
11414;SDS011;5763;42.714;23.244;2023-08-31T10:38:17;1.75;;;1.20;;
11414;SDS011;5763;42.714;23.244;2023-08-31T10:41:16;2.42;;;1.52;;
11414;SDS011;5763;42.714;23.244;2023-08-31T10:43:48;1.67;;;1.25;;
11414;SDS011;5763;42.714;23.244;2023-08-31T10:49:00;3.20;;;1.35;;
11414;SDS011;5763;42.714;23.244;2023-08-31T10:51:29;2.70;;;1.25;;
11414;SDS011;5763;42.714;23.244;2023-08-31T10:54:06;1.67;;;1.20;;
11414;SDS011;5763;42.714;23.244;2023-08-31T10:56:54;1.85;;;1.42;;
11414;SDS011;5763;42.714;23.244;2023-08-31T10:59:40;2.33;;;1.33;;
11414;SDS011;5763;42.714;23.244;2023-08-31T11:02:10;1.90;;;1.30;;
11414;SDS011;5763;42.714;23.244;2023-08-31T11:04:52;2.67;;;1.40;;
11414;SDS011;5763;42.714;23.244;2023-08-31T11:07:19;1.45;;;1.35;;
11414;SDS011;5763;42.714;23.244;2023-08-31T11:09:49;1.35;;;1.08;;
11414;SDS011;5763;42.714;23.244;2023-08-31T11:12:16;1.35;;;1.23;;
11414;SDS011;5763;42.714;23.244;2023-08-31T11:14:43;1.48;;;1.05;;
11414;SDS011;5763;42.714;23.244;2023-08-31T11:17:11;1.65;;;1.30;;
11414;SDS011;5763;42.714;23.244;2023-08-31T11:19:39;1.67;;;1.38;;
11414;SDS011;5763;42.714;23.244;2023-08-31T11:22:07;2.35;;;1.20;;
11414;SDS011;5763;42.714;23.244;2023-08-31T11:24:36;2.63;;;1.60;;
11414;SDS011;5763;42.714;23.244;2023-08-31T11:27:06;1.75;;;1.30;;
11414;SDS011;5763;42.714;23.244;2023-08-31T11:29:36;1.27;;;0.98;;
11414;SDS011;5763;42.714;23.244;2023-08-31T11:32:04;1.17;;;0.98;;
11414;SDS011;5763;42.714;23.244;2023-08-31T11:34:33;1.75;;;1.13;;
11414;SDS011;5763;42.714;23.244;2023-08-31T11:37:00;2.30;;;1.27;;
11414;SDS011;5763;42.714;23.244;2023-08-31T11:39:26;1.92;;;1.38;;
11414;SDS011;5763;42.714;23.244;2023-08-31T11:41:54;1.42;;;1.15;;
11414;SDS011;5763;42.714;23.244;2023-08-31T11:44:21;1.58;;;1.20;;
11414;SDS011;5763;42.714;23.244;2023-08-31T11:46:48;1.52;;;1.08;;
11414;SDS011;5763;42.714;23.244;2023-08-31T11:49:16;1.30;;;1.02;;
11414;SDS011;5763;42.714;23.244;2023-08-31T11:51:45;1.52;;;1.23;;
11414;SDS011;5763;42.714;23.244;2023-08-31T11:54:14;1.50;;;1.20;;
11414;SDS011;5763;42.714;23.244;2023-08-31T11:56:45;1.50;;;1.05;;
11414;SDS011;5763;42.714;23.244;2023-08-31T11:59:15;2.13;;;1.25;;
11414;SDS011;5763;42.714;23.244;2023-08-31T12:01:42;1.65;;;1.25;;
11414;SDS011;5763;42.714;23.244;2023-08-31T12:04:10;2.13;;;1.20;;
11414;SDS011;5763;42.714;23.244;2023-08-31T12:06:38;1.38;;;1.15;;
11414;SDS011;5763;42.714;23.244;2023-08-31T12:09:07;2.15;;;1.20;;
11414;SDS011;5763;42.714;23.244;2023-08-31T12:11:35;1.33;;;1.15;;
11414;SDS011;5763;42.714;23.244;2023-08-31T12:14:01;1.55;;;1.10;;
11414;SDS011;5763;42.714;23.244;2023-08-31T12:16:33;1.33;;;1.20;;
11414;SDS011;5763;42.714;23.244;2023-08-31T12:19:01;1.35;;;1.02;;
11414;SDS011;5763;42.714;23.244;2023-08-31T12:21:29;1.02;;;0.85;;
11414;SDS011;5763;42.714;23.244;2023-08-31T12:23:56;1.00;;;0.88;;
11414;SDS011;5763;42.714;23.244;2023-08-31T12:26:25;1.77;;;0.90;;
11414;SDS011;5763;42.714;23.244;2023-08-31T12:28:52;2.00;;;1.20;;
11414;SDS011;5763;42.714;23.244;2023-08-31T12:31:19;1.70;;;1.38;;
11414;SDS011;5763;42.714;23.244;2023-08-31T12:33:46;1.60;;;1.20;;
11414;SDS011;5763;42.714;23.244;2023-08-31T12:36:13;1.50;;;1.10;;
11414;SDS011;5763;42.714;23.244;2023-08-31T12:38:40;1.95;;;1.30;;
11414;SDS011;5763;42.714;23.244;2023-08-31T12:41:06;1.60;;;1.10;;
11414;SDS011;5763;42.714;23.244;2023-08-31T12:43:35;2.25;;;1.27;;
11414;SDS011;5763;42.714;23.244;2023-08-31T12:46:02;1.60;;;1.17;;
11414;SDS011;5763;42.714;23.244;2023-08-31T12:48:30;1.27;;;1.10;;
11414;SDS011;5763;42.714;23.244;2023-08-31T12:50:57;1.65;;;1.10;;
11414;SDS011;5763;42.714;23.244;2023-08-31T12:53:24;1.55;;;1.20;;
11414;SDS011;5763;42.714;23.244;2023-08-31T12:55:53;2.00;;;1.27;;
11414;SDS011;5763;42.714;23.244;2023-08-31T12:58:19;1.42;;;1.00;;
11414;SDS011;5763;42.714;23.244;2023-08-31T13:00:49;2.40;;;1.38;;
11414;SDS011;5763;42.714;23.244;2023-08-31T13:03:18;1.40;;;1.00;;
11414;SDS011;5763;42.714;23.244;2023-08-31T13:05:45;1.90;;;1.00;;
11414;SDS011;5763;42.714;23.244;2023-08-31T13:08:12;0.90;;;0.90;;
11414;SDS011;5763;42.714;23.244;2023-08-31T13:10:39;1.50;;;1.08;;
11414;SDS011;5763;42.714;23.244;2023-08-31T13:13:06;1.38;;;1.02;;
11414;SDS011;5763;42.714;23.244;2023-08-31T13:15:32;1.38;;;1.10;;
11414;SDS011;5763;42.714;23.244;2023-08-31T13:18:01;2.65;;;1.15;;
11414;SDS011;5763;42.714;23.244;2023-08-31T13:20:28;2.22;;;0.90;;
11414;SDS011;5763;42.714;23.244;2023-08-31T13:22:55;2.25;;;1.20;;
11414;SDS011;5763;42.714;23.244;2023-08-31T13:25:22;1.67;;;1.02;;
11414;SDS011;5763;42.714;23.244;2023-08-31T13:27:48;1.40;;;1.23;;
11414;SDS011;5763;42.714;23.244;2023-08-31T13:30:15;1.48;;;1.08;;
11414;SDS011;5763;42.714;23.244;2023-08-31T13:32:42;1.92;;;1.10;;
11414;SDS011;5763;42.714;23.244;2023-08-31T13:35:10;1.73;;;1.13;;
11414;SDS011;5763;42.714;23.244;2023-08-31T13:37:37;1.50;;;1.20;;
11414;SDS011;5763;42.714;23.244;2023-08-31T13:40:05;1.27;;;1.17;;
11414;SDS011;5763;42.714;23.244;2023-08-31T13:42:33;1.13;;;0.90;;
11414;SDS011;5763;42.714;23.244;2023-08-31T13:45:03;1.80;;;1.25;;
11414;SDS011;5763;42.714;23.244;2023-08-31T13:47:31;1.08;;;0.95;;
11414;SDS011;5763;42.714;23.244;2023-08-31T13:49:58;1.85;;;1.20;;
11414;SDS011;5763;42.714;23.244;2023-08-31T13:52:26;1.60;;;1.20;;
11414;SDS011;5763;42.714;23.244;2023-08-31T13:54:53;1.85;;;1.15;;
11414;SDS011;5763;42.714;23.244;2023-08-31T13:57:20;1.25;;;1.00;;
11414;SDS011;5763;42.714;23.244;2023-08-31T13:59:47;1.38;;;1.10;;
11414;SDS011;5763;42.714;23.244;2023-08-31T14:02:14;1.65;;;1.27;;
11414;SDS011;5763;42.714;23.244;2023-08-31T14:04:41;1.50;;;1.00;;
11414;SDS011;5763;42.714;23.244;2023-08-31T14:07:08;1.52;;;1.00;;
11414;SDS011;5763;42.714;23.244;2023-08-31T14:09:36;1.60;;;1.02;;
11414;SDS011;5763;42.714;23.244;2023-08-31T14:12:02;1.02;;;0.90;;
11414;SDS011;5763;42.714;23.244;2023-08-31T14:14:29;2.10;;;1.23;;
11414;SDS011;5763;42.714;23.244;2023-08-31T14:16:56;1.58;;;1.13;;
11414;SDS011;5763;42.714;23.244;2023-08-31T14:19:23;1.25;;;1.10;;
11414;SDS011;5763;42.714;23.244;2023-08-31T14:21:49;1.38;;;0.80;;
11414;SDS011;5763;42.714;23.244;2023-08-31T14:24:18;1.70;;;1.15;;
11414;SDS011;5763;42.714;23.244;2023-08-31T14:26:46;1.50;;;1.02;;
11414;SDS011;5763;42.714;23.244;2023-08-31T14:29:12;1.48;;;0.82;;
11414;SDS011;5763;42.714;23.244;2023-08-31T14:31:39;1.17;;;0.90;;
11414;SDS011;5763;42.714;23.244;2023-08-31T14:34:06;2.25;;;1.50;;
11414;SDS011;5763;42.714;23.244;2023-08-31T14:36:32;2.08;;;1.30;;
11414;SDS011;5763;42.714;23.244;2023-08-31T14:38:59;2.47;;;1.00;;
11414;SDS011;5763;42.714;23.244;2023-08-31T14:41:27;1.42;;;1.27;;
11414;SDS011;5763;42.714;23.244;2023-08-31T14:43:55;2.47;;;1.48;;
11414;SDS011;5763;42.714;23.244;2023-08-31T14:46:21;3.95;;;1.30;;
11414;SDS011;5763;42.714;23.244;2023-08-31T14:48:49;2.40;;;1.60;;
11414;SDS011;5763;42.714;23.244;2023-08-31T14:51:16;1.85;;;1.15;;
11414;SDS011;5763;42.714;23.244;2023-08-31T14:53:43;4.18;;;1.35;;
11414;SDS011;5763;42.714;23.244;2023-08-31T14:56:09;1.52;;;1.08;;
11414;SDS011;5763;42.714;23.244;2023-08-31T14:58:36;1.90;;;1.10;;